Latest Weather Observations for Munglinup West

IDW60801

Issued at 5:12 pm WST Saturday 28 March 2015 (issued every 30 minutes, with the page automatically refreshed every 10 minutes)

About weather observations | Map of weather stations | Latest weather observations for WA | Other Formats
Station Details ID: 012044 Name: MUNGLINUP WEST Lat: -33.55 Lon: 120.70 Height: 220.0 m
Data from the previous 72 hours. | See also: Recent months at Munglinup West
Date/Time
WST
Temp
°C
App
Temp
°C
Dew
Point
Rel
Hum
%
Delta-T
°C
Wind Press
QNH
hPa
Press
MSL
hPa
Rain
since 9 am
mm
Dir
 
Spd
km/h
Gust
km/h
Spd
kts
Gust
kts
28/05:00pm 20.2 18.5 14.8 71 3.2 S 17 24 9 13 1019.8 1019.0 0.0
28/04:30pm 21.1 18.7 14.5 66 3.9 SSE 20 28 11 15 1019.6 1018.9 0.0
28/04:00pm 21.7 19.6 14.6 64 4.2 S 19 28 10 15 1019.4 1018.7 0.0
28/03:30pm 22.8 20.2 14.9 61 4.7 SSE 22 35 12 19 1019.3 1018.6 0.0
28/03:00pm 23.6 21.3 14.6 57 5.4 S 20 30 11 16 1019.2 1018.5 0.0
28/02:30pm 23.8 21.7 14.8 57 5.4 S 19 30 10 16 1019.1 1018.4 0.0
28/02:00pm 25.3 23.2 14.7 51 6.4 S 19 28 10 15 1019.1 1018.4 0.0
28/01:30pm 25.3 23.2 14.7 51 6.4 SSW 19 28 10 15 1019.0 1018.3 0.0
28/01:00pm 25.5 23.4 13.7 48 7.0 S 17 28 9 15 1019.1 1018.4 0.0
28/12:30pm 24.1 22.1 12.7 49 6.6 SSW 15 24 8 13 1019.4 1018.7 0.0
28/12:00pm 23.9 21.7 13.2 51 6.2 SSW 17 24 9 13 1019.9 1019.1 0.0
28/11:30am 22.8 20.7 13.6 56 5.4 SSW 17 24 9 13 1020.4 1019.6 0.0
28/11:00am 23.3 21.3 14.0 56 5.5 SSW 17 24 9 13 1020.6 1019.8 0.0
28/10:30am 23.1 21.1 13.8 55 5.5 SSW 17 24 9 13 1020.8 1020.0 0.0
28/10:00am 22.1 20.1 15.5 66 4.0 SSW 20 30 11 16 1020.9 1020.1 0.0
28/09:30am 21.1 19.3 15.4 70 3.4 SSW 19 32 10 17 1020.9 1020.1 0.0
28/09:00am 20.2 17.7 15.2 73 3.0 SW 22 30 12 16 1020.8 1020.0 0.0
28/08:30am 18.6 17.1 14.1 75 2.6 SW 15 19 8 10 1020.7 1019.9 0.0
28/08:00am 17.1 16.9 14.6 85 1.4 WSW 9 13 5 7 1020.6 1019.8 0.0
28/07:30am 15.2 15.0 14.7 97 0.3 WNW 9 13 5 7 1020.5 1019.7 0.0
28/07:00am 13.7 13.5 13.5 99 0.1 NW 7 11 4 6 1020.3 1019.5 0.0
28/06:30am 12.5 11.5 12.2 98 0.2 NNW 9 13 5 7 1019.9 1019.1 0.0
28/06:00am 12.0 10.8 11.5 97 0.3 NNW 9 11 5 6 1019.6 1018.9 0.0
28/05:30am 11.9 10.6 11.4 97 0.3 NNW 9 9 5 5 1019.4 1018.7 0.0
28/05:00am 12.1 10.9 11.5 96 0.3 NNW 9 11 5 6 1019.2 1018.5 0.0
28/04:30am 12.3 10.7 11.4 94 0.5 NNW 11 13 6 7 1018.8 1018.1 0.0
28/04:00am 13.1 11.6 12.0 93 0.6 NW 11 15 6 8 1018.7 1018.0 0.0
28/03:30am 13.6 12.2 12.2 91 0.8 NNW 11 13 6 7 1018.6 1017.9 0.0
28/03:00am 14.3 13.4 12.5 89 1.0 N 9 15 5 8 1018.5 1017.8 0.0
28/02:30am 15.4 14.4 13.4 88 1.1 N 11 15 6 8 1018.5 1017.8 0.0
28/02:00am 15.5 14.5 13.5 88 1.1 N 11 17 6 9 1019.0 1018.3 0.0
28/01:30am 15.6 14.7 13.8 89 1.0 N 11 19 6 10 1019.1 1018.4 0.0
28/01:00am 15.4 14.9 13.8 90 0.9 N 9 15 5 8 1019.3 1018.6 0.0
28/12:30am 15.3 14.8 13.7 90 0.9 N 9 15 5 8 1019.4 1018.7 0.0
28/12:00am 15.5 14.1 13.5 88 1.1 NNE 13 19 7 10 1019.4 1018.7 0.0
 
Date/Time
WST
Temp
°C
App
Temp
°C
Dew
Point
Rel
Hum
%
Delta-T
°C
Wind Press
QNH
hPa
Press
MSL
hPa
Rain
since 9 am
mm
Dir
 
Spd
km/h
Gust
km/h
Spd
kts
Gust
kts
27/11:30pm 15.5 14.1 13.3 87 1.2 NNE 13 22 7 12 1019.6 1018.9 0.0
27/11:00pm 15.4 13.5 12.9 85 1.4 NNE 15 20 8 11 1019.9 1019.1 0.0
27/10:30pm 15.7 14.0 12.5 81 1.8 NNE 13 19 7 10 1020.3 1019.5 0.0
27/10:00pm 16.4 14.8 12.8 79 2.0 NNE 13 17 7 9 1020.6 1019.8 0.0
27/09:30pm 16.8 15.2 12.7 77 2.3 NE 13 17 7 9 1020.7 1019.9 0.0
27/09:00pm 16.8 15.2 12.7 77 2.3 NE 13 17 7 9 1020.8 1020.0 0.0
27/08:30pm 16.6 15.2 12.2 75 2.4 NE 11 13 6 7 1020.6 1019.8 0.0
27/08:00pm 17.6 16.2 12.3 71 3.0 NNE 11 15 6 8 1020.6 1019.8 0.0
27/07:30pm 18.0 17.1 12.5 70 3.1 NNE 9 13 5 7 1020.4 1019.6 0.0
27/07:00pm 18.1 17.0 12.1 68 3.3 NNE 9 13 5 7 1020.0 1019.2 0.0
27/06:30pm 18.9 17.5 12.2 65 3.8 NNE 11 15 6 8 1019.8 1019.0 0.0
27/06:00pm 19.3 17.6 12.3 64 3.9 NNE 13 19 7 10 1019.4 1018.7 0.0
27/05:30pm 20.4 17.4 12.1 59 4.7 NNE 19 26 10 14 1019.4 1018.7 0.0
27/05:00pm 21.3 18.2 12.2 56 5.2 NNE 20 28 11 15 1019.3 1018.6 0.0
27/04:30pm 21.0 16.6 11.6 55 5.3 NNE 26 39 14 21 1019.2 1018.5 0.0
27/04:00pm 23.6 20.6 9.2 40 7.8 NE 15 20 8 11 1019.0 1018.3 0.0
27/03:30pm 23.1 19.7 9.1 41 7.6 NE 17 22 9 12 1018.8 1018.1 0.0
27/03:00pm 23.0 19.0 8.3 39 7.8 NNE 19 28 10 15 1019.5 1018.8 0.0
27/02:30pm 24.0 20.2 7.6 35 8.7 N 17 24 9 13 1019.9 1019.1 0.0
27/02:00pm 24.9 22.5 7.1 32 9.4 N 9 20 5 11 1020.2 1019.4 0.0
27/01:30pm 25.1 22.2 6.3 30 9.8 N 11 20 6 11 1020.4 1019.6 0.0
27/01:00pm 25.5 22.6 6.7 30 9.9 NNE 11 22 6 12 1020.9 1020.1 0.0
27/12:30pm 26.7 22.8 7.2 29 10.4 NNE 17 32 9 17 1021.2 1020.4 0.0
27/12:00pm 25.8 21.6 7.4 31 9.8 NNE 19 28 10 15 1021.7 1021.0 0.0
27/11:30am 25.8 23.0 6.9 30 10.0 NNE 11 22 6 12 1022.2 1021.5 0.0
27/11:00am 24.6 21.1 7.3 33 9.1 N 15 24 8 13 1022.5 1021.8 0.0
27/10:30am 24.9 21.6 8.0 34 9.1 NNE 15 24 8 13 1023.0 1022.3 0.0
27/10:00am 23.5 19.2 8.0 37 8.2 NNE 20 32 11 17 1023.6 1022.9 0.0
27/09:30am 20.9 16.3 8.2 44 6.7 NNE 22 30 12 16 1024.0 1023.3 0.0
27/09:00am 20.3 15.8 8.6 47 6.2 NNE 22 33 12 18 1024.2 1023.5 0.0
27/08:30am 19.2 14.4 8.8 51 5.5 NNE 24 33 13 18 1024.2 1023.5 0.0
27/08:00am 15.9 11.2 9.3 65 3.4 NNE 24 33 13 18 1024.2 1023.5 0.0
27/07:30am 14.6 9.8 9.0 69 2.9 NE 24 33 13 18 1024.3 1023.6 0.0
27/07:00am 14.7 10.4 9.3 70 2.8 NE 22 32 12 17 1024.6 1023.8 0.0
27/06:30am 13.7 9.3 9.0 73 2.4 NE 22 30 12 16 1024.3 1023.6 0.0
27/06:00am 13.8 9.0 9.0 73 2.4 NE 24 32 13 17 1024.5 1023.7 0.0
27/05:30am 13.9 9.9 9.1 73 2.5 NE 20 28 11 15 1024.5 1023.7 0.0
27/05:00am 13.7 9.3 9.0 73 2.4 NE 22 30 12 16 1024.1 1023.4 0.0
27/04:30am 13.6 8.9 9.1 74 2.3 NE 24 33 13 18 1024.3 1023.6 0.0
27/04:00am 13.3 8.9 9.0 75 2.2 NE 22 32 12 17 1024.3 1023.6 0.0
27/03:30am 13.1 9.1 9.0 76 2.1 NE 20 28 11 15 1024.3 1023.6 0.0
27/03:00am 13.0 9.0 8.9 76 2.1 NE 20 30 11 16 1024.3 1023.6 0.0
27/02:30am 12.9 8.8 8.8 76 2.1 NE 20 28 11 15 1024.7 1023.9 0.0
27/02:00am 13.1 9.2 8.8 75 2.2 NE 19 26 10 14 1024.9 1024.1 0.0
27/01:30am 13.3 9.2 8.8 74 2.3 NE 20 32 11 17 1025.1 1024.3 0.0
27/01:00am 13.5 9.1 9.0 74 2.3 NE 22 32 12 17 1025.2 1024.4 0.0
27/12:30am 13.2 9.2 8.9 75 2.2 ENE 20 32 11 17 1025.2 1024.4 0.0
27/12:00am 13.3 9.2 8.6 73 2.4 ENE 20 28 11 15 1025.5 1024.8 0.0
 
Date/Time
WST
Temp
°C
App
Temp
°C
Dew
Point
Rel
Hum
%
Delta-T
°C
Wind Press
QNH
hPa
Press
MSL
hPa
Rain
since 9 am
mm
Dir
 
Spd
km/h
Gust
km/h
Spd
kts
Gust
kts
26/11:30pm 13.4 8.8 8.3 71 2.6 ENE 22 28 12 15 1025.7 1025.0 0.0
26/11:00pm 13.2 9.0 8.3 72 2.5 ENE 20 26 11 14 1025.9 1025.2 0.0
26/10:30pm 13.4 8.9 8.7 73 2.4 E 22 28 12 15 1026.1 1025.4 0.0
26/10:00pm 13.6 9.7 9.3 75 2.2 E 20 28 11 15 1026.2 1025.5 0.0
26/09:30pm 14.0 9.8 9.6 75 2.3 E 22 28 12 15 1026.1 1025.4 0.0
26/09:00pm 14.4 9.8 9.8 74 2.4 E 24 30 13 16 1026.3 1025.6 0.0
26/08:30pm 14.8 10.3 10.0 73 2.5 E 24 35 13 19 1026.4 1025.7 0.0
26/08:00pm 15.0 10.9 10.2 73 2.5 E 22 30 12 16 1026.5 1025.8 0.0
26/07:30pm 15.5 11.6 10.7 73 2.6 ESE 22 30 12 16 1026.6 1025.9 0.0
26/07:00pm 16.0 12.6 11.4 74 2.5 ESE 20 28 11 15 1026.5 1025.8 0.0
26/06:30pm 16.6 13.0 11.7 73 2.7 ESE 22 33 12 18 1026.2 1025.5 0.0
26/06:00pm 17.6 13.5 11.4 67 3.4 ESE 24 32 13 17 1026.0 1025.3 0.0
26/05:30pm 18.9 14.3 11.0 60 4.3 ESE 26 35 14 19 1026.0 1025.3 0.0
26/05:00pm 20.5 15.7 10.3 52 5.5 ESE 26 33 14 18 1025.8 1025.1 0.0
26/04:30pm 21.4 15.7 9.9 48 6.3 SE 30 41 16 22 1025.5 1024.8 0.0
26/04:00pm 23.5 17.9 8.8 39 7.9 ESE 28 37 15 20 1025.3 1024.5 0.0
26/03:30pm 25.0 20.8 5.7 29 10.0 E 17 30 9 16 1025.2 1024.4 0.0
26/03:00pm 24.9 21.0 5.2 28 10.0 E 15 22 8 12 1025.6 1024.9 0.0
26/02:30pm 25.1 20.5 5.8 29 10.0 ENE 19 32 10 17 1026.1 1025.4 0.0
26/02:00pm 25.6 21.6 6.8 30 9.9 ENE 17 26 9 14 1026.3 1025.6 0.0
26/01:30pm 24.5 20.9 6.7 32 9.3 NE 15 24 8 13 1026.7 1026.0 0.0
26/01:00pm 24.6 20.5 7.7 34 9.0 ENE 19 28 10 15 1027.1 1026.4 0.0
26/12:30pm 23.5 18.9 8.0 37 8.3 ENE 22 33 12 18 1027.6 1026.9 0.0
26/12:00pm 22.9 18.3 8.2 39 7.8 ENE 22 30 12 16 1027.9 1027.2 0.0
26/11:30am 22.1 18.0 8.6 42 7.2 ENE 20 30 11 16 1028.4 1027.7 0.0
26/11:00am 21.1 16.6 8.7 45 6.6 ENE 22 32 12 17 1028.8 1028.1 0.0
26/10:30am 21.0 17.1 9.3 47 6.3 ENE 20 32 11 17 1029.6 1028.9 0.0
26/10:00am 19.4 14.6 9.0 51 5.5 ENE 24 33 13 18 1030.0 1029.3 0.0
26/09:30am 18.3 13.6 9.4 56 4.7 NE 24 37 13 20 1030.2 1029.5 0.0
26/09:00am 17.2 12.7 9.9 62 3.9 NE 24 37 13 20 1030.4 1029.7 0.0
26/08:30am 15.6 11.7 9.5 67 3.2 ENE 20 30 11 16 1030.7 1030.0 0.0
26/08:00am 14.1 10.2 9.3 73 2.5 ENE 20 30 11 16 1030.6 1029.9 0.0
26/07:30am 12.1 7.9 8.2 77 1.9 ENE 20 32 11 17 1030.4 1029.7 0.0
26/07:00am 10.5 6.4 7.7 83 1.4 ENE 19 24 10 13 1030.3 1029.6 0.0
26/06:30am 9.4 5.5 7.3 87 1.0 ENE 17 22 9 12 1030.0 1029.3 0.0
26/06:00am 9.1 5.2 7.2 88 0.9 ENE 17 24 9 13 1029.7 1029.0 0.0
26/05:30am 8.9 5.4 7.0 88 0.9 ENE 15 19 8 10 1029.5 1028.8 0.0
26/05:00am 9.1 5.3 7.4 89 0.8 ENE 17 22 9 12 1029.4 1028.6 0.0
26/04:30am 8.8 4.6 7.3 90 0.7 ENE 19 24 10 13 1029.3 1028.5 0.0
26/04:00am 9.1 5.3 7.4 89 0.8 ENE 17 20 9 11 1029.1 1028.4 0.0
26/03:30am 9.0 5.6 7.5 90 0.7 ENE 15 20 8 11 1029.1 1028.4 0.0
26/03:00am 9.2 5.4 7.6 90 0.8 ENE 17 24 9 13 1029.1 1028.4 0.0
26/02:30am 8.9 5.8 7.4 90 0.7 ENE 13 17 7 9 1029.3 1028.5 0.0
26/02:00am 9.4 6.0 7.8 90 0.8 ENE 15 20 8 11 1029.5 1028.8 0.0
26/01:30am 9.2 6.2 7.6 90 0.8 ENE 13 17 7 9 1029.6 1028.9 0.0
26/01:00am 9.5 6.1 7.8 89 0.8 ENE 15 19 8 10 1029.8 1029.1 0.0
26/12:30am 10.0 6.7 7.9 87 1.0 ENE 15 19 8 10 1030.0 1029.3 0.0
26/12:00am 10.4 7.2 8.3 87 1.0 ENE 15 22 8 12 1029.8 1029.1 0.0
 
Date/Time
WST
Temp
°C
App
Temp
°C
Dew
Point
Rel
Hum
%
Delta-T
°C
Wind Press
QNH
hPa
Press
MSL
hPa
Rain
since 9 am
mm
Dir
 
Spd
km/h
Gust
km/h
Spd
kts
Gust
kts
25/11:30pm 10.8 6.9 8.6 86 1.1 ENE 19 24 10 13 1029.6 1028.9 0.0
25/11:00pm 11.1 7.2 8.7 85 1.2 E 19 26 10 14 1029.5 1028.8 0.0
25/10:30pm 11.4 7.5 8.8 84 1.3 E 19 28 10 15 1029.5 1028.8 0.0
25/10:00pm 12.0 8.0 9.0 82 1.5 E 20 32 11 17 1029.5 1028.8 0.0
25/09:30pm 12.2 8.3 9.4 83 1.4 E 20 32 11 17 1029.5 1028.8 0.0
25/09:00pm 12.6 8.4 9.8 83 1.4 E 22 28 12 15 1029.5 1028.8 0.0
25/08:30pm 12.7 9.0 10.1 84 1.4 ESE 20 26 11 14 1029.6 1028.9 0.0
25/08:00pm 12.9 9.8 10.3 84 1.4 ESE 17 20 9 11 1029.6 1028.9 0.0
25/07:30pm 13.4 10.3 10.4 82 1.6 ESE 17 22 9 12 1029.5 1028.8 0.0
25/07:00pm 14.1 10.7 10.7 80 1.8 ESE 19 24 10 13 1029.1 1028.4 0.0
25/06:30pm 14.5 11.2 10.9 79 1.9 ESE 19 26 10 14 1028.9 1028.2 0.0
25/06:00pm 15.2 11.0 11.2 77 2.1 ESE 24 35 13 19 1028.7 1028.0 0.0
25/05:30pm 16.1 12.0 11.5 74 2.5 SE 24 32 13 17 1028.4 1027.7 0.0

Other Formats:

Comma delimited format used in spreadsheet applications
http://www.bom.gov.au/fwo/IDW60801/IDW60801.95644.axf

JavaScript Object Notation format (JSON) in row-major order
http://www.bom.gov.au/fwo/IDW60801/IDW60801.95644.json